createdAt,value
2019-01-20T00:00:21.945Z,29.30
2019-01-20T00:02:55.430Z,26.80
2019-01-20T00:05:24.227Z,34.20
2019-01-20T00:08:01.210Z,24.87
2019-01-20T00:10:29.638Z,26.00
2019-01-20T00:13:02.794Z,26.10
2019-01-20T00:15:32.822Z,24.30
2019-01-20T00:18:04.378Z,26.47
2019-01-20T00:20:34.441Z,23.93
2019-01-20T00:23:02.889Z,26.87
2019-01-20T00:25:51.344Z,24.73
2019-01-20T00:28:24.362Z,23.90
2019-01-20T00:30:58.404Z,22.30
2019-01-20T00:33:26.849Z,26.10
2019-01-20T00:36:01.526Z,23.53
2019-01-20T00:38:30.176Z,20.67
2019-01-20T00:40:58.606Z,23.30
2019-01-20T00:43:30.724Z,25.37
2019-01-20T00:45:59.149Z,23.70
2019-01-20T00:48:32.317Z,23.83
2019-01-20T00:51:00.741Z,22.63
2019-01-20T00:53:32.113Z,20.87
2019-01-20T00:56:02.278Z,28.00
2019-01-20T00:58:39.184Z,22.50
2019-01-20T01:01:10.298Z,23.77
2019-01-20T01:03:45.604Z,26.60
2019-01-20T01:06:23.310Z,20.07
2019-01-20T01:08:54.408Z,20.63
2019-01-20T01:11:31.410Z,22.57
2019-01-20T01:14:00.508Z,23.17
2019-01-20T01:16:31.632Z,20.17
2019-01-20T01:19:06.822Z,21.63
2019-01-20T01:21:36.222Z,20.67
2019-01-20T01:24:04.673Z,23.47
2019-01-20T01:26:36.900Z,23.83
2019-01-20T01:29:08.359Z,22.77
2019-01-20T01:31:38.426Z,20.90
2019-01-20T01:36:47.236Z,22.93
2019-01-20T01:39:21.417Z,20.97
2019-01-20T01:41:49.866Z,25.23
2019-01-20T01:44:19.941Z,25.67
2019-01-20T01:47:03.392Z,22.20
2019-01-20T01:49:34.833Z,20.80
2019-01-20T01:52:04.942Z,22.77
2019-01-20T01:54:50.128Z,22.80
2019-01-20T01:57:24.403Z,20.40
2019-01-20T01:59:56.073Z,24.43
2019-01-20T02:02:33.451Z,20.53
2019-01-20T02:05:06.269Z,20.67
2019-01-20T02:07:41.918Z,24.80
2019-01-20T02:10:13.537Z,23.73
2019-01-20T02:12:41.963Z,20.10
2019-01-20T02:15:18.214Z,21.43
2019-01-20T02:17:50.068Z,24.07
2019-01-20T02:20:26.537Z,22.83
2019-01-20T02:22:54.971Z,20.67
2019-01-20T02:25:26.238Z,25.13
2019-01-20T02:27:58.786Z,21.43
2019-01-20T02:30:28.713Z,24.50
2019-01-20T02:32:59.920Z,21.10
2019-01-20T02:35:28.354Z,21.37
2019-01-20T02:37:56.811Z,20.83
2019-01-20T02:40:35.966Z,27.00
2019-01-20T02:43:08.288Z,23.37
2019-01-20T02:45:38.348Z,22.53
2019-01-20T02:48:11.126Z,25.23
2019-01-20T02:50:42.851Z,21.10
2019-01-20T02:53:14.367Z,22.57
2019-01-20T02:55:43.702Z,20.57
2019-01-20T02:58:16.734Z,25.20
2019-01-20T03:00:51.351Z,22.97
2019-01-20T03:03:19.823Z,19.07
2019-01-20T03:05:48.256Z,20.63
2019-01-20T03:08:16.954Z,25.33
2019-01-20T03:10:50.033Z,19.47
2019-01-20T03:13:22.810Z,19.83
2019-01-20T03:15:53.813Z,19.70
2019-01-20T03:18:28.142Z,20.00
2019-01-20T03:20:58.246Z,19.57
2019-01-20T03:23:28.334Z,18.83
2019-01-20T03:26:02.479Z,22.10
2019-01-20T03:28:35.506Z,20.97
2019-01-20T03:31:09.351Z,21.83
2019-01-20T03:33:40.196Z,20.97
2019-01-20T03:36:14.785Z,18.17
2019-01-20T03:38:53.670Z,18.40
2019-01-20T03:41:25.032Z,21.70
2019-01-20T03:44:02.415Z,21.10
2019-01-20T03:46:32.551Z,26.27
2019-01-20T03:49:03.967Z,21.67
2019-01-20T03:51:35.300Z,24.97
2019-01-20T03:54:09.842Z,22.80
2019-01-20T03:56:39.959Z,24.87
2019-01-20T03:59:20.038Z,21.03
2019-01-20T04:01:48.467Z,27.30
2019-01-20T04:04:22.858Z,22.60
2019-01-20T04:07:00.079Z,29.07
2019-01-20T04:09:34.302Z,22.87
2019-01-20T04:12:04.365Z,25.63
2019-01-20T04:14:35.463Z,18.50
2019-01-20T04:17:06.955Z,22.33
2019-01-20T04:19:41.227Z,20.40
2019-01-20T04:22:09.642Z,21.50
2019-01-20T04:24:39.755Z,22.07
2019-01-20T04:27:16.896Z,20.23
2019-01-20T04:29:43.853Z,21.20
2019-01-20T04:32:18.285Z,22.60
2019-01-20T04:34:49.546Z,26.33
2019-01-20T04:37:23.917Z,22.17
2019-01-20T04:39:55.219Z,23.67
2019-01-20T04:42:29.249Z,24.73
2019-01-20T04:45:07.962Z,26.57
2019-01-20T04:47:39.370Z,24.80
2019-01-20T04:50:16.622Z,30.93
2019-01-20T04:52:47.906Z,27.27
2019-01-20T04:55:19.775Z,25.23
2019-01-20T04:57:54.605Z,28.77
2019-01-20T05:00:25.620Z,27.50
2019-01-20T05:03:05.655Z,23.70
2019-01-20T05:05:35.753Z,25.87
2019-01-20T05:08:08.526Z,25.10
2019-01-20T05:10:38.269Z,29.50
2019-01-20T05:13:09.681Z,30.73
2019-01-20T05:15:44.150Z,26.80
2019-01-20T05:18:12.561Z,30.43
2019-01-20T05:20:43.980Z,26.87
2019-01-20T05:23:14.995Z,26.43
2019-01-20T05:25:44.745Z,27.93
2019-01-20T05:28:13.158Z,28.33
2019-01-20T05:30:44.534Z,26.80
2019-01-20T05:33:15.922Z,27.87
2019-01-20T05:35:44.337Z,27.10
2019-01-20T05:38:17.310Z,26.57
2019-01-20T05:40:47.386Z,26.87
2019-01-20T05:43:17.456Z,27.77
2019-01-20T05:45:56.760Z,27.13
2019-01-20T05:48:28.220Z,28.43
2019-01-20T05:50:59.480Z,27.50
2019-01-20T05:53:30.929Z,27.37
2019-01-20T05:56:12.680Z,27.00
2019-01-20T05:58:42.738Z,27.27
2019-01-20T06:01:12.839Z,28.60
2019-01-20T06:03:44.054Z,28.43
2019-01-20T06:06:20.142Z,25.90
2019-01-20T06:08:54.106Z,30.53
2019-01-20T06:11:29.910Z,28.90
2019-01-20T06:13:58.342Z,27.83
2019-01-20T06:16:28.722Z,27.50
2019-01-20T06:19:01.333Z,25.40
2019-01-20T06:21:32.499Z,31.57
2019-01-20T06:24:06.935Z,32.43
2019-01-20T06:26:35.402Z,29.07
2019-01-20T06:29:09.538Z,30.80
2019-01-20T06:31:37.961Z,37.67
2019-01-20T06:34:09.090Z,32.30
2019-01-20T06:36:37.692Z,33.63
2019-01-20T06:39:14.378Z,35.27
2019-01-20T06:41:42.841Z,29.07
2019-01-20T06:44:11.266Z,29.13
2019-01-20T06:46:42.634Z,28.00
2019-01-20T06:49:12.741Z,28.17
2019-01-20T06:51:51.161Z,25.93
2019-01-20T06:54:24.145Z,28.23
2019-01-20T06:56:55.769Z,30.20
2019-01-20T06:59:27.320Z,30.63
2019-01-20T07:01:55.741Z,29.83
2019-01-20T07:04:26.873Z,28.13
2019-01-20T07:06:57.999Z,29.80
2019-01-20T07:09:31.920Z,25.67
2019-01-20T07:12:06.514Z,27.43
2019-01-20T07:14:35.473Z,28.60
2019-01-20T07:17:03.970Z,26.47
2019-01-20T07:19:35.315Z,28.60
2019-01-20T07:22:06.875Z,27.27
2019-01-20T07:24:38.182Z,28.10
2019-01-20T07:27:08.543Z,27.30
2019-01-20T07:29:45.630Z,26.00
2019-01-20T07:32:14.078Z,23.47
2019-01-20T07:34:51.412Z,26.67
2019-01-20T07:37:21.523Z,28.20
2019-01-20T07:39:54.538Z,28.47
2019-01-20T07:42:22.964Z,26.23
2019-01-20T07:44:54.111Z,30.03
2019-01-20T07:47:22.547Z,24.87
2019-01-20T07:49:56.994Z,27.53
2019-01-20T07:52:25.449Z,26.03
2019-01-20T07:54:53.869Z,23.53
2019-01-20T07:57:23.942Z,25.93
2019-01-20T07:59:55.088Z,28.90
2019-01-20T08:02:26.282Z,25.40
2019-01-20T08:04:57.863Z,25.30
2019-01-20T08:07:27.926Z,26.03
2019-01-20T08:09:56.358Z,24.43
2019-01-20T08:12:29.120Z,27.17
2019-01-20T08:15:00.493Z,24.80
2019-01-20T08:17:28.951Z,23.60
2019-01-20T08:20:06.622Z,28.40
2019-01-20T08:22:35.082Z,24.23
2019-01-20T08:25:04.622Z,24.53
2019-01-20T08:27:38.173Z,27.20
2019-01-20T08:30:15.710Z,23.70
2019-01-20T08:32:48.486Z,28.27
2019-01-20T08:35:18.581Z,24.30
2019-01-20T08:37:48.716Z,25.00
2019-01-20T08:40:22.501Z,25.33
2019-01-20T08:42:55.214Z,26.10
2019-01-20T08:45:47.598Z,23.97
2019-01-20T08:48:27.249Z,24.47
2019-01-20T08:50:53.671Z,21.87
2019-01-20T08:53:23.800Z,26.50
2019-01-20T08:56:01.480Z,23.47
2019-01-20T08:58:42.598Z,23.70
2019-01-20T09:01:26.559Z,20.33
2019-01-20T09:03:57.325Z,19.50
2019-01-20T09:06:27.383Z,21.43
2019-01-20T09:08:55.809Z,20.40
2019-01-20T09:11:28.608Z,20.23
2019-01-20T09:14:00.221Z,21.73
2019-01-20T09:16:31.910Z,19.17
2019-01-20T09:19:00.334Z,20.43
2019-01-20T09:21:28.761Z,18.77
2019-01-20T09:24:00.135Z,17.70
2019-01-20T09:26:28.563Z,19.30
2019-01-20T09:29:10.586Z,19.50
2019-01-20T09:31:39.026Z,19.97
2019-01-20T09:34:09.443Z,20.53
2019-01-20T09:36:45.101Z,19.00
2019-01-20T09:39:16.246Z,18.83
2019-01-20T09:41:47.074Z,17.27
2019-01-20T09:44:17.358Z,21.03
2019-01-20T09:46:54.439Z,19.13
2019-01-20T09:49:22.878Z,16.73
2019-01-20T09:51:51.306Z,19.77
2019-01-20T09:54:19.754Z,19.83
2019-01-20T09:56:51.138Z,18.83
2019-01-20T09:59:22.144Z,18.60
2019-01-20T10:01:53.649Z,21.50
2019-01-20T10:04:25.234Z,19.07
2019-01-20T10:06:54.218Z,19.00
2019-01-20T10:09:31.682Z,17.53
2019-01-20T10:12:00.181Z,20.03
2019-01-20T10:14:40.454Z,16.17
2019-01-20T10:17:09.232Z,18.33
2019-01-20T10:19:37.661Z,17.10
2019-01-20T10:22:07.742Z,16.33
2019-01-20T10:24:37.242Z,18.17
2019-01-20T10:27:05.666Z,20.40
2019-01-20T10:29:35.725Z,20.80
2019-01-20T10:32:05.821Z,21.40
2019-01-20T10:34:37.633Z,19.20
2019-01-20T10:37:09.026Z,18.77
2019-01-20T10:39:41.481Z,18.47
2019-01-20T10:42:13.502Z,18.10
2019-01-20T10:44:41.933Z,17.77
2019-01-20T10:47:13.220Z,18.43
2019-01-20T10:49:41.685Z,18.80
2019-01-20T10:52:18.745Z,18.00
2019-01-20T10:54:47.198Z,17.40
2019-01-20T10:57:21.158Z,17.97
2019-01-20T10:59:52.282Z,15.17
2019-01-20T11:02:23.347Z,14.70
2019-01-20T11:04:57.267Z,17.67
2019-01-20T11:07:31.213Z,15.63
2019-01-20T11:10:09.702Z,15.00
2019-01-20T11:12:41.174Z,15.70
2019-01-20T11:15:12.751Z,14.90
2019-01-20T11:17:55.867Z,18.37
2019-01-20T11:20:32.478Z,17.87
2019-01-20T11:23:04.232Z,14.60
2019-01-20T11:25:40.039Z,18.20
2019-01-20T11:28:08.466Z,18.20
2019-01-20T11:30:36.952Z,17.23
2019-01-20T11:33:09.202Z,15.77
2019-01-20T11:35:37.651Z,17.17
2019-01-20T11:38:12.417Z,16.57
2019-01-20T11:40:40.887Z,21.40
2019-01-20T11:43:09.314Z,19.77
2019-01-20T11:45:40.637Z,21.37
2019-01-20T11:48:16.469Z,17.37
2019-01-20T11:50:44.897Z,19.07
2019-01-20T11:53:13.312Z,15.63
2019-01-20T11:55:42.198Z,16.13
2019-01-20T11:58:14.033Z,14.60
2019-01-20T12:00:45.585Z,16.67
2019-01-20T12:03:13.978Z,19.73
2019-01-20T12:05:47.152Z,14.43
2019-01-20T12:08:18.778Z,15.30
2019-01-20T12:10:47.243Z,18.10
2019-01-20T12:13:19.804Z,17.07
2019-01-20T12:15:49.890Z,16.03
2019-01-20T12:18:24.467Z,17.20
2019-01-20T12:20:55.966Z,16.20
2019-01-20T12:23:27.702Z,14.60
2019-01-20T12:26:01.666Z,17.37
2019-01-20T12:28:37.620Z,19.20
2019-01-20T12:31:10.207Z,17.83
2019-01-20T12:33:48.962Z,17.70
2019-01-20T12:36:26.154Z,17.33
2019-01-20T12:38:55.630Z,15.10
2019-01-20T12:41:25.910Z,14.87
2019-01-20T12:43:57.104Z,13.37
2019-01-20T12:46:29.121Z,14.53
2019-01-20T12:49:02.021Z,15.70
2019-01-20T12:51:30.457Z,18.30
2019-01-20T12:54:00.298Z,15.97
2019-01-20T12:56:33.044Z,16.03
2019-01-20T12:59:01.494Z,17.83
2019-01-20T13:01:39.758Z,18.17
2019-01-20T13:04:08.221Z,15.00
2019-01-20T13:06:39.417Z,18.00
2019-01-20T13:09:08.453Z,15.83
2019-01-20T13:11:39.822Z,14.30
2019-01-20T13:14:11.269Z,19.73
2019-01-20T13:16:39.743Z,16.97
2019-01-20T13:19:11.141Z,20.17
2019-01-20T13:21:48.292Z,16.00
2019-01-20T13:24:17.258Z,16.40
2019-01-20T13:26:45.690Z,16.97
2019-01-20T13:29:21.579Z,17.37
2019-01-20T13:31:50.066Z,16.43
2019-01-20T13:34:18.492Z,16.10
2019-01-20T13:36:48.546Z,12.60
2019-01-20T13:39:21.590Z,15.50
2019-01-20T13:41:51.549Z,14.90
2019-01-20T13:44:27.137Z,16.13
2019-01-20T13:46:55.608Z,15.00
2019-01-20T13:49:25.706Z,16.40
2019-01-20T13:51:59.818Z,15.67
2019-01-20T13:54:29.897Z,15.93
2019-01-20T13:57:04.415Z,15.00
2019-01-20T13:59:34.489Z,16.27
2019-01-20T14:02:05.662Z,19.20
2019-01-20T14:04:34.096Z,15.67
2019-01-20T14:07:05.565Z,17.37
2019-01-20T14:09:37.861Z,19.50
2019-01-20T14:12:07.601Z,21.30
2019-01-20T14:14:37.671Z,18.67
2019-01-20T14:17:06.100Z,18.63
2019-01-20T14:19:37.221Z,17.20
2019-01-20T14:22:08.662Z,19.03
2019-01-20T14:24:43.117Z,16.27
2019-01-20T14:27:17.102Z,18.77
2019-01-20T14:29:49.586Z,16.10
2019-01-20T14:32:20.658Z,14.87
2019-01-20T14:34:56.119Z,16.27
2019-01-20T14:37:24.549Z,17.23
2019-01-20T14:39:55.965Z,16.13
2019-01-20T14:42:24.406Z,16.37
2019-01-20T14:45:01.145Z,19.50
2019-01-20T14:47:32.067Z,15.73
2019-01-20T14:50:00.529Z,17.83
2019-01-20T14:52:35.153Z,16.23
2019-01-20T14:55:13.845Z,20.63
2019-01-20T14:57:42.306Z,16.87
2019-01-20T15:00:13.817Z,17.40
2019-01-20T15:02:43.915Z,18.00
2019-01-20T15:05:16.516Z,19.97
2019-01-20T15:07:45.149Z,28.07
2019-01-20T15:10:19.603Z,18.67
2019-01-20T15:12:48.450Z,22.30
2019-01-20T15:15:28.949Z,18.97
2019-01-20T15:17:57.725Z,21.40
2019-01-20T15:20:26.314Z,20.77
2019-01-20T15:23:01.116Z,21.57
2019-01-20T15:25:32.400Z,33.63
2019-01-20T15:28:01.100Z,22.10
2019-01-20T15:30:34.350Z,18.80
2019-01-20T15:33:08.928Z,21.03
2019-01-20T15:35:40.168Z,20.03
2019-01-20T15:38:10.175Z,22.47
2019-01-20T15:40:50.418Z,20.77
2019-01-20T15:43:27.262Z,22.63
2019-01-20T15:45:57.363Z,20.43
2019-01-20T15:48:28.438Z,22.03
2019-01-20T15:50:56.910Z,20.87
2019-01-20T15:53:25.325Z,23.00
2019-01-20T15:56:06.427Z,25.70
2019-01-20T15:58:40.354Z,23.97
2019-01-20T16:01:10.448Z,19.57
2019-01-20T16:03:44.221Z,22.57
2019-01-20T16:06:12.691Z,26.77
2019-01-20T16:08:42.762Z,17.53
2019-01-20T16:11:11.182Z,18.50
2019-01-20T16:13:42.342Z,21.73
2019-01-20T16:16:19.150Z,19.67
2019-01-20T16:18:48.027Z,18.10
2019-01-20T16:21:19.310Z,24.47
2019-01-20T16:23:48.606Z,22.60
2019-01-20T16:26:17.033Z,24.37
2019-01-20T16:28:48.707Z,20.43
2019-01-20T16:31:20.087Z,23.93
2019-01-20T16:33:48.545Z,20.90
2019-01-20T16:36:16.997Z,22.40
2019-01-20T16:38:45.422Z,23.60
2019-01-20T16:41:15.525Z,27.83
2019-01-20T16:43:45.581Z,28.90
2019-01-20T16:46:14.010Z,25.57
2019-01-20T16:48:44.963Z,23.90
2019-01-20T16:51:15.051Z,23.43
2019-01-20T16:53:46.729Z,25.60
2019-01-20T16:56:15.362Z,22.80
2019-01-20T16:58:45.428Z,23.37
2019-01-20T17:01:16.306Z,20.10
2019-01-20T17:03:44.756Z,22.07
2019-01-20T17:06:13.186Z,19.33
2019-01-20T17:08:41.693Z,25.80
2019-01-20T17:11:12.959Z,24.97
2019-01-20T17:13:47.195Z,24.00
2019-01-20T17:16:17.251Z,19.63
2019-01-20T17:18:50.318Z,21.00
2019-01-20T17:21:18.837Z,22.50
2019-01-20T17:23:47.270Z,23.40
2019-01-20T17:26:15.758Z,24.37
2019-01-20T17:28:48.683Z,41.90
2019-01-20T17:31:23.329Z,23.73
2019-01-20T17:33:59.254Z,22.40
2019-01-20T17:36:27.688Z,22.73
2019-01-20T17:38:58.813Z,25.97
2019-01-20T17:41:27.278Z,26.47
2019-01-20T17:43:57.359Z,23.10
2019-01-20T17:46:25.777Z,27.03
2019-01-20T17:48:55.890Z,20.53
2019-01-20T17:51:24.898Z,24.20
2019-01-20T17:53:53.350Z,24.87
2019-01-20T17:56:24.593Z,26.97
2019-01-20T17:58:55.984Z,27.63
2019-01-20T18:01:28.982Z,25.23
2019-01-20T18:03:59.372Z,24.00
2019-01-20T18:06:29.795Z,27.57
2019-01-20T18:08:58.247Z,27.97
2019-01-20T18:11:32.355Z,25.83
2019-01-20T18:14:03.797Z,25.70
2019-01-20T18:16:46.573Z,26.43
2019-01-20T18:19:15.370Z,27.17
2019-01-20T18:21:45.442Z,23.90
2019-01-20T18:24:13.918Z,23.33
2019-01-20T18:26:42.338Z,23.13
2019-01-20T18:29:12.766Z,21.60
2019-01-20T18:31:47.901Z,24.40
2019-01-20T18:34:17.967Z,24.63
2019-01-20T18:36:46.385Z,25.13
2019-01-20T18:39:14.841Z,26.50
2019-01-20T18:41:43.267Z,23.83
2019-01-20T18:44:14.662Z,23.47
2019-01-20T18:46:45.808Z,35.50
2019-01-20T18:49:17.169Z,27.03
2019-01-20T18:51:47.259Z,24.43
2019-01-20T18:54:15.685Z,25.03
2019-01-20T18:56:44.138Z,25.00
2019-01-20T18:59:21.301Z,24.60
2019-01-20T19:01:54.110Z,24.07
2019-01-20T19:04:25.270Z,27.87
2019-01-20T19:06:54.519Z,20.10
2019-01-20T19:09:28.357Z,21.67
2019-01-20T19:11:56.777Z,27.77
2019-01-20T19:14:27.952Z,27.57
2019-01-20T19:16:58.026Z,23.87
2019-01-20T19:19:28.103Z,23.40
2019-01-20T19:21:58.188Z,23.57
2019-01-20T19:24:35.053Z,22.30
2019-01-20T19:27:05.122Z,23.47
2019-01-20T19:29:36.889Z,24.60
2019-01-20T19:32:08.051Z,24.10
2019-01-20T19:34:36.518Z,22.43
2019-01-20T19:37:04.949Z,23.60
2019-01-20T19:39:36.387Z,25.33
2019-01-20T19:42:06.454Z,24.27
2019-01-20T19:44:34.957Z,28.20
2019-01-20T19:47:04.969Z,27.87
2019-01-20T19:49:41.004Z,26.10
2019-01-20T19:52:12.452Z,23.97
2019-01-20T19:54:49.804Z,25.00
2019-01-20T19:57:19.901Z,24.87
2019-01-20T19:59:48.321Z,25.00
2019-01-20T20:02:16.778Z,26.90
2019-01-20T20:04:53.383Z,28.10
2019-01-20T20:07:28.005Z,25.13
2019-01-20T20:09:59.414Z,23.07
2019-01-20T20:12:31.105Z,25.97
2019-01-20T20:15:06.485Z,25.60
2019-01-20T20:17:38.389Z,27.43
2019-01-20T20:20:15.051Z,25.87
2019-01-20T20:22:45.146Z,21.67
2019-01-20T20:25:16.012Z,22.90
2019-01-20T20:27:44.626Z,23.83
2019-01-20T20:30:19.254Z,24.03
2019-01-20T20:32:48.927Z,24.93
2019-01-20T20:35:22.550Z,18.90
2019-01-20T20:37:56.672Z,20.63
2019-01-20T20:40:27.927Z,25.23
2019-01-20T20:43:02.475Z,22.17
2019-01-20T20:45:35.249Z,22.17
2019-01-20T20:48:12.738Z,25.30
2019-01-20T20:50:41.894Z,19.53
2019-01-20T20:53:14.978Z,24.43
2019-01-20T20:55:43.438Z,25.00
2019-01-20T20:58:14.545Z,28.13
2019-01-20T21:00:48.373Z,24.93
2019-01-20T21:03:19.905Z,24.00
2019-01-20T21:05:48.337Z,22.80
2019-01-20T21:08:16.753Z,22.37
2019-01-20T21:10:58.170Z,21.80
2019-01-20T21:13:31.421Z,21.40
2019-01-20T21:15:59.850Z,21.37
2019-01-20T21:18:29.940Z,21.13
2019-01-20T21:21:01.406Z,25.70
2019-01-20T21:23:33.324Z,18.70
2019-01-20T21:26:03.421Z,24.37
2019-01-20T21:28:33.915Z,22.90
2019-01-20T21:31:02.343Z,24.50
2019-01-20T21:33:39.253Z,25.30
2019-01-20T21:36:12.134Z,22.13
2019-01-20T21:38:40.930Z,20.30
2019-01-20T21:41:12.731Z,21.73
2019-01-20T21:43:44.327Z,18.03
2019-01-20T21:46:14.400Z,21.90
2019-01-20T21:48:43.354Z,19.83
2019-01-20T21:51:11.875Z,18.47
2019-01-20T21:53:41.101Z,18.77
2019-01-20T21:56:18.137Z,23.70
2019-01-20T21:58:52.922Z,21.07
2019-01-20T22:01:21.378Z,22.10
2019-01-20T22:03:52.611Z,22.40
2019-01-20T22:06:26.885Z,20.27
2019-01-20T22:08:55.350Z,19.07
2019-01-20T22:11:26.480Z,23.53
2019-01-20T22:13:55.262Z,20.23
2019-01-20T22:16:34.688Z,21.13
2019-01-20T22:19:10.576Z,20.40
2019-01-20T22:21:41.918Z,19.33
2019-01-20T22:24:11.988Z,21.90
2019-01-20T22:26:40.410Z,25.33
2019-01-20T22:29:11.821Z,25.73
2019-01-20T22:31:43.024Z,20.30
2019-01-20T22:34:16.023Z,22.27
2019-01-20T22:36:56.216Z,21.50
2019-01-20T22:39:27.291Z,22.13
2019-01-20T22:41:57.417Z,20.27
2019-01-20T22:44:31.677Z,21.93
2019-01-20T22:47:00.565Z,24.63
2019-01-20T22:49:31.837Z,20.90
2019-01-20T22:52:09.205Z,26.17
2019-01-20T22:54:37.654Z,22.43
2019-01-20T22:57:08.898Z,23.57
2019-01-20T22:59:37.326Z,22.87
2019-01-20T23:02:05.945Z,21.17
2019-01-20T23:04:37.685Z,22.57
2019-01-20T23:07:06.153Z,21.27
2019-01-20T23:09:37.723Z,23.97
2019-01-20T23:12:06.154Z,24.90
2019-01-20T23:14:37.284Z,21.07
2019-01-20T23:17:10.336Z,23.37
2019-01-20T23:19:39.048Z,26.07
2019-01-20T23:22:11.865Z,22.53
2019-01-20T23:24:41.958Z,26.37
2019-01-20T23:27:13.138Z,26.03
2019-01-20T23:29:48.889Z,22.27
2019-01-20T23:32:17.325Z,27.93
2019-01-20T23:34:45.782Z,23.77
2019-01-20T23:37:22.819Z,24.40
2019-01-20T23:39:58.921Z,24.43
2019-01-20T23:42:30.389Z,22.97
2019-01-20T23:44:58.886Z,25.33
2019-01-20T23:47:27.343Z,23.37
2019-01-20T23:50:01.682Z,24.60
2019-01-20T23:52:30.129Z,24.63
2019-01-20T23:55:03.145Z,24.77
2019-01-20T23:57:31.589Z,29.03
